createdAt,value
2022-08-26T00:02:15.843Z,7.47
2022-08-26T00:05:09.857Z,11.05
2022-08-26T00:08:00.368Z,11.35
2022-08-26T00:10:50.201Z,8.93
2022-08-26T00:13:42.159Z,9.80
2022-08-26T00:16:38.562Z,9.55
2022-08-26T00:19:31.341Z,8.63
2022-08-26T00:22:22.164Z,9.50
2022-08-26T00:25:13.755Z,9.85
2022-08-26T00:28:07.554Z,7.65
2022-08-26T00:31:01.036Z,7.72
2022-08-26T00:33:51.155Z,9.88
2022-08-26T00:36:41.663Z,11.65
2022-08-26T00:39:32.964Z,9.32
2022-08-26T00:42:23.391Z,10.40
2022-08-26T00:45:14.571Z,8.70
2022-08-26T00:48:06.457Z,9.98
2022-08-26T00:51:03.044Z,9.35
2022-08-26T00:53:59.080Z,8.40
2022-08-26T00:57:08.722Z,9.00
2022-08-26T01:00:13.400Z,8.02
2022-08-26T01:03:05.152Z,8.77
2022-08-26T01:05:57.592Z,7.75
2022-08-26T01:08:48.074Z,10.70
2022-08-26T01:11:38.815Z,9.70
2022-08-26T01:14:35.055Z,10.68
2022-08-26T01:17:26.748Z,8.88
2022-08-26T01:20:23.040Z,9.27
2022-08-26T01:23:14.976Z,12.38
2022-08-26T01:26:19.573Z,9.32
2022-08-26T01:29:15.776Z,8.80
2022-08-26T01:32:09.820Z,11.68
2022-08-26T01:35:00.946Z,12.95
2022-08-26T01:37:54.857Z,8.00
2022-08-26T01:40:45.872Z,8.40
2022-08-26T01:43:39.182Z,9.00
2022-08-26T01:46:30.671Z,9.23
2022-08-26T01:49:22.353Z,7.57
2022-08-26T01:52:18.901Z,7.93
2022-08-26T01:55:15.333Z,8.63
2022-08-26T01:58:39.033Z,12.48
2022-08-26T02:01:29.532Z,8.75
2022-08-26T02:04:33.211Z,9.73
2022-08-26T02:07:24.348Z,11.35
2022-08-26T02:10:16.844Z,11.65
2022-08-26T02:13:10.649Z,11.77
2022-08-26T02:16:03.700Z,12.15
2022-08-26T02:21:51.252Z,10.52
2022-08-26T02:24:49.963Z,13.75
2022-08-26T02:27:41.838Z,11.40
2022-08-26T02:30:32.845Z,13.77
2022-08-26T02:33:22.807Z,18.67
2022-08-26T02:36:13.447Z,17.60
2022-08-26T02:39:07.196Z,10.88
2022-08-26T02:41:58.168Z,12.20
2022-08-26T02:44:49.396Z,11.20
2022-08-26T02:47:39.929Z,15.00
2022-08-26T02:50:30.065Z,10.13
2022-08-26T02:53:25.091Z,11.23
2022-08-26T02:56:15.961Z,12.68
2022-08-26T02:59:06.656Z,10.93
2022-08-26T03:01:57.498Z,14.65
2022-08-26T03:04:57.910Z,12.68
2022-08-26T03:10:42.501Z,11.65
2022-08-26T03:13:32.359Z,14.20
2022-08-26T03:16:23.040Z,13.10
2022-08-26T03:19:13.750Z,18.35
2022-08-26T03:22:07.725Z,13.48
2022-08-26T03:24:58.076Z,13.90
2022-08-26T03:27:49.039Z,13.25
2022-08-26T03:30:45.257Z,12.80
2022-08-26T03:33:35.802Z,17.38
2022-08-26T03:36:28.982Z,13.07
2022-08-26T03:39:19.672Z,16.77
2022-08-26T03:42:10.808Z,10.73
2022-08-26T03:45:00.814Z,12.43
2022-08-26T03:47:50.969Z,15.65
2022-08-26T03:50:43.077Z,12.20
2022-08-26T03:53:33.310Z,15.57
2022-08-26T03:56:30.366Z,11.13
2022-08-26T03:59:20.483Z,9.50
2022-08-26T04:02:11.576Z,13.73
2022-08-26T04:05:02.546Z,11.15
2022-08-26T04:07:54.097Z,13.40
2022-08-26T04:10:44.338Z,15.25
2022-08-26T04:13:34.835Z,13.85
2022-08-26T04:16:26.026Z,10.52
2022-08-26T04:19:19.246Z,13.17
2022-08-26T04:22:09.684Z,13.50
2022-08-26T04:24:59.815Z,10.43
2022-08-26T04:27:49.777Z,12.63
2022-08-26T04:30:41.143Z,16.65
2022-08-26T04:33:33.225Z,18.55
2022-08-26T04:36:26.267Z,14.05
2022-08-26T04:39:16.885Z,18.63
2022-08-26T04:42:08.999Z,15.25
2022-08-26T04:44:59.391Z,12.48
2022-08-26T04:47:53.480Z,14.18
2022-08-26T04:53:33.999Z,14.07
2022-08-26T04:56:33.352Z,14.05
2022-08-26T04:59:23.619Z,12.38
2022-08-26T05:02:15.176Z,15.23
2022-08-26T05:05:07.119Z,12.90
2022-08-26T05:07:57.173Z,13.02
2022-08-26T05:10:51.263Z,15.68
2022-08-26T05:13:41.452Z,13.68
2022-08-26T05:16:32.274Z,14.93
2022-08-26T05:19:23.644Z,14.65
2022-08-26T05:22:14.825Z,18.02
2022-08-26T05:25:05.278Z,14.68
2022-08-26T05:27:55.372Z,14.73
2022-08-26T05:30:46.315Z,18.98
2022-08-26T05:33:36.391Z,24.80
2022-08-26T05:36:33.491Z,25.02
2022-08-26T05:39:24.621Z,28.60
2022-08-26T05:42:15.389Z,29.45
2022-08-26T05:45:06.457Z,26.10
2022-08-26T05:47:57.129Z,27.05
2022-08-26T05:50:50.964Z,26.13
2022-08-26T05:53:43.920Z,25.23
2022-08-26T05:56:44.971Z,18.52
2022-08-26T05:59:36.793Z,23.88
2022-08-26T06:02:28.819Z,24.52
2022-08-26T06:05:19.409Z,20.67
2022-08-26T06:08:13.956Z,20.25
2022-08-26T06:11:07.052Z,20.20
2022-08-26T06:14:03.605Z,19.52
2022-08-26T06:16:54.916Z,19.25
2022-08-26T06:19:45.029Z,22.67
2022-08-26T06:23:01.202Z,21.05
2022-08-26T06:25:52.455Z,22.30
2022-08-26T06:28:45.490Z,16.88
2022-08-26T06:31:36.830Z,22.57
2022-08-26T06:34:30.677Z,21.15
2022-08-26T06:40:11.614Z,14.52
2022-08-26T06:43:01.998Z,19.15
2022-08-26T06:45:59.608Z,17.27
2022-08-26T06:48:50.172Z,16.45
2022-08-26T06:51:41.284Z,16.58
2022-08-26T06:54:31.717Z,16.80
2022-08-26T06:57:21.951Z,16.00
2022-08-26T07:00:12.879Z,17.38
2022-08-26T07:03:05.606Z,17.52
2022-08-26T07:06:03.998Z,14.32
2022-08-26T07:09:03.323Z,17.52
2022-08-26T07:11:56.095Z,13.05
2022-08-26T07:14:48.190Z,13.02
2022-08-26T07:17:38.685Z,18.60
2022-08-26T07:20:30.473Z,13.13
2022-08-26T07:23:20.381Z,12.32
2022-08-26T07:26:16.371Z,18.83
2022-08-26T07:29:06.826Z,15.77
2022-08-26T07:31:58.039Z,11.57
2022-08-26T07:34:48.076Z,14.40
2022-08-26T07:37:39.332Z,14.10
2022-08-26T07:40:30.192Z,13.23
2022-08-26T07:43:20.997Z,19.15
2022-08-26T07:46:18.466Z,13.02
2022-08-26T07:49:12.128Z,13.93
2022-08-26T07:52:02.629Z,14.00
2022-08-26T07:54:53.067Z,9.25
2022-08-26T07:57:43.821Z,11.63
2022-08-26T08:00:34.832Z,9.90
2022-08-26T08:03:24.842Z,18.00
2022-08-26T08:06:15.073Z,11.27
2022-08-26T08:09:05.083Z,8.35
2022-08-26T08:11:57.509Z,8.30
2022-08-26T08:14:48.757Z,9.30
2022-08-26T08:17:38.935Z,8.13
2022-08-26T08:20:29.965Z,11.93
2022-08-26T08:23:19.931Z,9.13
2022-08-26T08:26:11.611Z,9.35
2022-08-26T08:29:01.691Z,8.43
2022-08-26T08:31:56.477Z,8.40
2022-08-26T08:34:48.057Z,7.22
2022-08-26T08:37:38.645Z,7.47
2022-08-26T08:40:29.336Z,5.35
2022-08-26T08:43:37.671Z,9.13
2022-08-26T08:46:30.205Z,6.45
2022-08-26T08:49:21.821Z,5.20
2022-08-26T08:52:37.232Z,5.18
2022-08-26T08:55:36.677Z,7.05
2022-08-26T08:58:42.057Z,5.35
2022-08-26T09:01:43.150Z,4.75
2022-08-26T09:04:55.468Z,8.32
2022-08-26T09:11:00.298Z,6.22
2022-08-26T09:13:53.276Z,6.65
2022-08-26T09:16:51.655Z,7.50
2022-08-26T09:19:49.565Z,4.75
2022-08-26T09:22:40.580Z,6.93
2022-08-26T09:25:45.636Z,6.60
2022-08-26T09:28:42.393Z,16.30
2022-08-26T09:31:35.909Z,11.43
2022-08-26T09:34:28.302Z,9.00
2022-08-26T09:37:37.584Z,8.77
2022-08-26T09:40:36.036Z,16.13
2022-08-26T09:43:28.497Z,9.25
2022-08-26T09:46:25.870Z,11.93
2022-08-26T09:49:26.039Z,13.05
2022-08-26T09:52:23.730Z,12.00
2022-08-26T09:55:24.112Z,11.70
2022-08-26T09:58:31.368Z,13.52
2022-08-26T10:01:23.398Z,10.57
2022-08-26T10:04:26.696Z,14.90
2022-08-26T10:07:41.691Z,17.73
2022-08-26T10:10:36.935Z,11.70
2022-08-26T10:13:37.498Z,22.27
2022-08-26T10:17:03.486Z,17.83
2022-08-26T10:20:22.918Z,13.75
2022-08-26T10:23:18.611Z,12.13
2022-08-26T10:26:46.463Z,14.30
2022-08-26T10:29:46.800Z,13.50
2022-08-26T10:32:41.763Z,17.38
2022-08-26T10:35:35.419Z,14.60
2022-08-26T10:38:38.661Z,13.20
2022-08-26T10:41:36.228Z,15.25
2022-08-26T10:44:28.772Z,21.23
2022-08-26T10:47:25.842Z,16.90
2022-08-26T10:50:18.850Z,14.70
2022-08-26T10:53:52.093Z,16.60
2022-08-26T10:57:02.536Z,14.45
2022-08-26T11:00:43.975Z,14.15
2022-08-26T11:03:50.430Z,18.75
2022-08-26T11:06:40.929Z,20.60
2022-08-26T11:09:52.659Z,14.00
2022-08-26T11:12:42.713Z,18.92
2022-08-26T11:15:36.795Z,16.48
2022-08-26T11:22:01.105Z,19.23
2022-08-26T11:24:55.073Z,16.75
2022-08-26T11:30:40.670Z,17.30
2022-08-26T11:33:52.236Z,11.27
2022-08-26T11:36:47.683Z,12.93
2022-08-26T11:39:55.012Z,11.30
2022-08-26T11:42:51.727Z,15.32
2022-08-26T11:45:45.289Z,14.75
2022-08-26T11:48:40.985Z,19.45
2022-08-26T11:51:32.896Z,14.73
2022-08-26T11:54:35.353Z,15.27
2022-08-26T11:57:26.611Z,15.32
2022-08-26T12:00:54.424Z,19.65
2022-08-26T12:03:50.663Z,11.85
2022-08-26T12:06:47.735Z,14.75
2022-08-26T12:09:51.592Z,10.90
2022-08-26T12:12:42.474Z,17.13
2022-08-26T12:15:34.241Z,18.90
2022-08-26T12:18:30.573Z,17.33
2022-08-26T12:21:24.427Z,15.60
2022-08-26T12:24:18.701Z,15.80
2022-08-26T12:27:25.455Z,21.02
2022-08-26T12:30:20.017Z,13.07
2022-08-26T12:33:22.901Z,12.82
2022-08-26T12:36:18.193Z,13.05
2022-08-26T12:39:16.220Z,17.90
2022-08-26T12:42:42.209Z,17.15
2022-08-26T12:45:35.577Z,18.98
2022-08-26T12:48:32.050Z,18.08
2022-08-26T12:51:26.275Z,12.13
2022-08-26T12:57:13.262Z,16.20
2022-08-26T13:00:22.733Z,25.45
2022-08-26T13:03:35.290Z,15.68
2022-08-26T13:06:32.539Z,16.90
2022-08-26T13:09:22.714Z,15.55
2022-08-26T13:12:23.572Z,18.83
2022-08-26T13:15:14.002Z,15.85
2022-08-26T13:18:04.534Z,22.65
2022-08-26T13:20:54.455Z,15.60
2022-08-26T13:23:44.649Z,18.65
2022-08-26T13:26:35.668Z,14.82
2022-08-26T13:29:26.301Z,17.73
2022-08-26T13:32:18.017Z,11.80
2022-08-26T13:35:08.368Z,12.25
2022-08-26T13:37:58.874Z,16.60
2022-08-26T13:40:49.462Z,12.82
2022-08-26T13:43:39.941Z,11.00
2022-08-26T13:46:30.322Z,12.70
2022-08-26T13:49:21.001Z,15.77
2022-08-26T13:52:11.595Z,18.17
2022-08-26T13:55:02.203Z,23.63
2022-08-26T13:57:52.373Z,19.20
2022-08-26T14:00:42.340Z,19.48
2022-08-26T14:03:32.682Z,12.98
2022-08-26T14:06:23.061Z,19.88
2022-08-26T14:09:13.698Z,18.95
2022-08-26T14:12:07.121Z,21.52
2022-08-26T14:14:58.407Z,16.98
2022-08-26T14:18:08.755Z,16.23
2022-08-26T14:20:59.495Z,14.57
2022-08-26T14:23:49.797Z,19.35
2022-08-26T14:26:40.723Z,21.63
2022-08-26T14:29:30.922Z,15.27
2022-08-26T14:32:27.177Z,13.00
2022-08-26T14:35:20.881Z,16.00
2022-08-26T14:38:12.150Z,11.77
2022-08-26T14:41:03.201Z,19.42
2022-08-26T14:44:14.826Z,14.50
2022-08-26T14:47:06.907Z,17.58
2022-08-26T14:49:57.121Z,22.38
2022-08-26T14:53:06.138Z,16.50
2022-08-26T14:55:56.650Z,16.30
2022-08-26T14:58:46.874Z,15.82
2022-08-26T15:01:37.697Z,13.70
2022-08-26T15:04:28.468Z,12.30
2022-08-26T15:07:18.703Z,15.55
2022-08-26T15:10:11.730Z,11.23
2022-08-26T15:13:02.862Z,12.98
2022-08-26T15:15:53.051Z,17.38
2022-08-26T15:18:43.738Z,11.20
2022-08-26T15:21:35.706Z,10.00
2022-08-26T15:24:28.670Z,10.73
2022-08-26T15:27:18.994Z,9.95
2022-08-26T15:30:11.399Z,11.57
2022-08-26T15:33:02.096Z,11.85
2022-08-26T15:35:52.343Z,6.70
2022-08-26T15:38:42.693Z,10.85
2022-08-26T15:41:34.789Z,7.50
2022-08-26T15:44:26.905Z,8.23
2022-08-26T15:47:17.250Z,12.25
2022-08-26T15:50:08.915Z,11.68
2022-08-26T15:53:01.358Z,9.80
2022-08-26T15:55:55.202Z,10.48
2022-08-26T15:58:46.892Z,8.32
2022-08-26T16:01:38.237Z,10.95
2022-08-26T16:04:29.531Z,12.93
2022-08-26T16:07:19.925Z,12.88
2022-08-26T16:10:10.815Z,11.68
2022-08-26T16:13:00.647Z,15.55
2022-08-26T16:15:50.934Z,12.32
2022-08-26T16:18:42.207Z,12.77
2022-08-26T16:21:32.622Z,13.75
2022-08-26T16:24:27.164Z,9.63
2022-08-26T16:27:20.733Z,11.25
2022-08-26T16:30:26.450Z,12.18
2022-08-26T16:33:24.978Z,7.97
2022-08-26T16:36:20.627Z,7.80
2022-08-26T16:39:11.215Z,6.38
2022-08-26T16:42:01.494Z,9.48
2022-08-26T16:44:51.840Z,13.68
2022-08-26T16:47:42.048Z,11.55
2022-08-26T16:50:33.202Z,21.63
2022-08-26T16:53:23.704Z,12.10
2022-08-26T16:56:15.613Z,8.38
2022-08-26T16:59:08.028Z,11.50
2022-08-26T17:01:58.269Z,11.27
2022-08-26T17:04:49.292Z,8.63
2022-08-26T17:07:40.678Z,6.82
2022-08-26T17:10:31.891Z,6.35
2022-08-26T17:13:25.949Z,3.10
2022-08-26T17:16:27.615Z,3.33
2022-08-26T17:19:19.178Z,4.35
2022-08-26T17:22:09.710Z,6.85
2022-08-26T17:25:00.902Z,9.32
2022-08-26T17:27:51.267Z,4.28
2022-08-26T17:30:42.065Z,8.70
2022-08-26T17:33:32.856Z,6.65
2022-08-26T17:36:28.111Z,5.53
2022-08-26T17:39:18.743Z,7.68
2022-08-26T17:42:11.652Z,4.13
2022-08-26T17:45:02.096Z,6.03
2022-08-26T17:47:55.795Z,6.53
2022-08-26T17:50:49.331Z,7.63
2022-08-26T17:53:41.325Z,10.35
2022-08-26T17:56:31.619Z,18.50
2022-08-26T17:59:21.829Z,8.85
2022-08-26T18:02:12.108Z,12.52
2022-08-26T18:05:02.237Z,9.60
2022-08-26T18:07:52.963Z,8.00
2022-08-26T18:10:44.690Z,10.63
2022-08-26T18:13:34.995Z,12.48
2022-08-26T18:16:25.199Z,14.65
2022-08-26T18:19:15.642Z,10.32
2022-08-26T18:22:06.817Z,9.57
2022-08-26T18:24:58.803Z,12.90
2022-08-26T18:27:49.511Z,12.32
2022-08-26T18:30:42.349Z,9.80
2022-08-26T18:33:32.779Z,11.52
2022-08-26T18:36:27.328Z,9.98
2022-08-26T18:39:23.453Z,14.27
2022-08-26T18:42:14.182Z,11.50
2022-08-26T18:45:08.992Z,12.48
2022-08-26T18:47:59.460Z,11.10
2022-08-26T18:50:52.145Z,12.25
2022-08-26T18:53:45.680Z,16.48
2022-08-26T18:56:37.241Z,12.38
2022-08-26T18:59:30.608Z,11.75
2022-08-26T19:02:24.542Z,7.90
2022-08-26T19:05:15.748Z,15.40
2022-08-26T19:08:07.504Z,16.27
2022-08-26T19:10:59.377Z,15.80
2022-08-26T19:13:50.355Z,14.55
2022-08-26T19:16:47.206Z,10.63
2022-08-26T19:19:38.286Z,15.10
2022-08-26T19:22:28.583Z,12.90
2022-08-26T19:25:19.135Z,14.65
2022-08-26T19:28:10.093Z,15.68
2022-08-26T19:31:01.440Z,13.02
2022-08-26T19:33:53.517Z,12.40
2022-08-26T19:36:46.827Z,14.05
2022-08-26T19:39:44.728Z,11.50
2022-08-26T19:42:34.839Z,15.10
2022-08-26T19:45:25.597Z,13.88
2022-08-26T19:48:16.191Z,12.77
2022-08-26T19:51:07.230Z,14.13
2022-08-26T19:53:59.941Z,15.07
2022-08-26T19:56:50.514Z,11.18
2022-08-26T19:59:41.138Z,11.25
2022-08-26T20:02:31.680Z,11.73
2022-08-26T20:05:26.308Z,10.20
2022-08-26T20:08:22.048Z,13.68
2022-08-26T20:11:16.578Z,15.75
2022-08-26T20:14:06.402Z,15.07
2022-08-26T20:16:56.742Z,17.30
2022-08-26T20:20:05.607Z,12.60
2022-08-26T20:23:04.422Z,16.45
2022-08-26T20:25:56.424Z,14.23
2022-08-26T20:28:46.453Z,14.07
2022-08-26T20:31:38.724Z,16.83
2022-08-26T20:34:29.098Z,16.52
2022-08-26T20:37:21.653Z,17.02
2022-08-26T20:40:13.865Z,16.33
2022-08-26T20:43:05.981Z,19.13
2022-08-26T20:45:56.125Z,17.20
2022-08-26T20:48:47.621Z,15.50
2022-08-26T20:51:37.878Z,14.30
2022-08-26T20:54:29.163Z,14.57
2022-08-26T20:57:20.070Z,18.15
2022-08-26T21:00:13.430Z,15.00
2022-08-26T21:03:04.265Z,17.00
2022-08-26T21:05:54.975Z,14.75
2022-08-26T21:08:46.183Z,12.43
2022-08-26T21:11:37.900Z,19.13
2022-08-26T21:14:28.323Z,20.15
2022-08-26T21:17:19.951Z,12.82
2022-08-26T21:20:10.242Z,13.50
2022-08-26T21:23:00.571Z,16.60
2022-08-26T21:25:51.064Z,15.38
2022-08-26T21:28:43.239Z,17.52
2022-08-26T21:31:34.937Z,16.77
2022-08-26T21:34:25.171Z,18.77
2022-08-26T21:37:16.959Z,18.40
2022-08-26T21:40:08.288Z,18.20
2022-08-26T21:42:58.762Z,20.45
2022-08-26T21:45:49.308Z,18.42
2022-08-26T21:48:42.895Z,14.90
2022-08-26T21:51:36.159Z,16.40
2022-08-26T21:54:26.438Z,15.82
2022-08-26T21:57:17.509Z,15.05
2022-08-26T22:00:09.667Z,17.52
2022-08-26T22:03:00.710Z,18.20
2022-08-26T22:05:51.241Z,17.50
2022-08-26T22:08:41.538Z,18.98
2022-08-26T22:11:32.757Z,20.38
2022-08-26T22:14:30.453Z,19.35
2022-08-26T22:17:23.957Z,19.00
2022-08-26T22:20:16.600Z,16.73
2022-08-26T22:23:07.571Z,20.95
2022-08-26T22:25:58.404Z,19.65
2022-08-26T22:28:48.634Z,22.35
2022-08-26T22:31:38.961Z,24.60
2022-08-26T22:34:29.121Z,22.83
2022-08-26T22:37:19.227Z,23.85
2022-08-26T22:40:11.213Z,21.77
2022-08-26T22:43:02.525Z,21.48
2022-08-26T22:45:53.697Z,25.35
2022-08-26T22:48:44.059Z,21.42
2022-08-26T22:51:35.212Z,22.67
2022-08-26T22:54:25.351Z,19.92
2022-08-26T22:57:15.805Z,20.73
2022-08-26T23:00:07.049Z,27.45
2022-08-26T23:03:02.183Z,24.55
2022-08-26T23:05:52.807Z,25.15
2022-08-26T23:08:46.232Z,24.65
2022-08-26T23:11:38.508Z,25.05
2022-08-26T23:14:32.368Z,26.52
2022-08-26T23:17:23.839Z,24.30
2022-08-26T23:20:18.027Z,23.27
2022-08-26T23:23:09.529Z,26.10
2022-08-26T23:26:03.255Z,21.35
2022-08-26T23:28:55.865Z,25.77
2022-08-26T23:31:46.124Z,28.75
2022-08-26T23:34:54.778Z,27.42
2022-08-26T23:37:46.139Z,29.85
2022-08-26T23:40:38.823Z,28.10
2022-08-26T23:43:29.439Z,30.98
2022-08-26T23:46:20.573Z,31.35
2022-08-26T23:49:10.820Z,35.40
2022-08-26T23:52:19.558Z,37.47
2022-08-26T23:55:10.680Z,35.25
2022-08-26T23:58:01.388Z,34.45
